createdAt,value
2024-05-09T00:01:23.652Z,101106.25
2024-05-09T00:03:57.400Z,101112.66
2024-05-09T00:06:28.567Z,101105.38
2024-05-09T00:08:59.537Z,101107.34
2024-05-09T00:11:30.587Z,101106.75
2024-05-09T00:14:01.695Z,101099.50
2024-05-09T00:16:32.705Z,101106.50
2024-05-09T00:19:06.580Z,101104.22
2024-05-09T00:21:37.700Z,101105.63
2024-05-09T00:24:09.064Z,101111.22
2024-05-09T00:26:40.267Z,101100.28
2024-05-09T00:29:11.329Z,101109.22
2024-05-09T00:31:42.410Z,101095.69
2024-05-09T00:34:16.335Z,101108.94
2024-05-09T00:36:47.406Z,101107.53
2024-05-09T00:39:18.446Z,101105.44
2024-05-09T00:41:49.559Z,101107.50
2024-05-09T00:44:21.030Z,101109.44
2024-05-09T00:46:55.093Z,101105.38
2024-05-09T00:49:30.442Z,101108.44
2024-05-09T00:52:02.482Z,101102.44
2024-05-09T00:54:34.476Z,101102.72
2024-05-09T00:57:07.729Z,101102.22
2024-05-09T00:59:38.965Z,101098.16
2024-05-09T01:02:10.605Z,101103.75
2024-05-09T01:04:44.532Z,101090.03
2024-05-09T01:07:16.635Z,101092.13
2024-05-09T01:09:47.672Z,101097.56
2024-05-09T01:12:18.781Z,101092.78
2024-05-09T01:14:50.061Z,101088.88
2024-05-09T01:17:25.874Z,101103.91
2024-05-09T01:20:01.089Z,101098.16
2024-05-09T01:22:34.148Z,101098.41
2024-05-09T01:25:08.322Z,101089.88
2024-05-09T01:27:39.410Z,101089.28
2024-05-09T01:30:17.023Z,101087.16
2024-05-09T01:32:51.332Z,101090.94
2024-05-09T01:35:23.991Z,101080.84
2024-05-09T01:37:54.460Z,101096.88
2024-05-09T01:40:36.355Z,101089.44
2024-05-09T01:43:10.848Z,101091.63
2024-05-09T01:45:42.305Z,101094.53
2024-05-09T01:48:12.805Z,101087.81
2024-05-09T01:50:43.737Z,101088.22
2024-05-09T01:53:15.591Z,101094.59
2024-05-09T01:55:48.506Z,101094.00
2024-05-09T01:58:19.165Z,101098.72
2024-05-09T02:00:49.430Z,101099.25
2024-05-09T02:03:19.916Z,101093.50
2024-05-09T02:05:51.257Z,101092.78
2024-05-09T02:08:22.895Z,101093.28
2024-05-09T02:10:55.913Z,101097.25
2024-05-09T02:13:26.176Z,101092.47
2024-05-09T02:15:56.483Z,101094.41
2024-05-09T02:18:26.759Z,101088.91
2024-05-09T02:20:56.925Z,101088.31
2024-05-09T02:23:27.096Z,101096.38
2024-05-09T02:26:00.054Z,101095.81
2024-05-09T02:28:30.280Z,101096.06
2024-05-09T02:31:00.486Z,101084.84
2024-05-09T02:33:31.355Z,101089.56
2024-05-09T02:36:01.711Z,101099.44
2024-05-09T02:38:36.255Z,101090.78
2024-05-09T02:41:10.803Z,101088.63
2024-05-09T02:43:39.115Z,101082.16
2024-05-09T02:46:11.092Z,101093.19
2024-05-09T02:48:39.478Z,101089.13
2024-05-09T02:51:10.612Z,101093.13
2024-05-09T02:53:39.402Z,101089.13
2024-05-09T02:56:13.797Z,101095.59
2024-05-09T02:58:42.167Z,101109.91
2024-05-09T03:01:13.190Z,101104.00
2024-05-09T03:03:45.777Z,101110.50
2024-05-09T03:06:16.869Z,101116.19
2024-05-09T03:08:51.919Z,101104.25
2024-05-09T03:11:35.633Z,101110.50
2024-05-09T03:14:04.002Z,101107.16
2024-05-09T03:16:35.061Z,101117.97
2024-05-09T03:19:03.406Z,101114.00
2024-05-09T03:21:34.516Z,101116.75
2024-05-09T03:24:02.987Z,101117.00
2024-05-09T03:26:36.814Z,101105.69
2024-05-09T03:29:05.220Z,101110.03
2024-05-09T03:31:36.270Z,101115.31
2024-05-09T03:34:04.877Z,101112.81
2024-05-09T03:36:36.073Z,101116.63
2024-05-09T03:39:07.017Z,101119.38
2024-05-09T03:41:40.940Z,101122.16
2024-05-09T03:44:12.014Z,101127.69
2024-05-09T03:46:40.761Z,101124.56
2024-05-09T03:49:11.975Z,101122.00
2024-05-09T03:51:43.258Z,101123.09
2024-05-09T03:54:11.477Z,101122.25
2024-05-09T03:56:45.388Z,101126.81
2024-05-09T03:59:13.755Z,101125.13
2024-05-09T04:01:45.138Z,101132.09
2024-05-09T04:04:13.620Z,101140.03
2024-05-09T04:06:45.734Z,101133.06
2024-05-09T04:09:14.182Z,101131.25
2024-05-09T04:11:47.996Z,101136.31
2024-05-09T04:14:16.216Z,101137.16
2024-05-09T04:16:47.244Z,101142.31
2024-05-09T04:19:15.683Z,101141.22
2024-05-09T04:21:46.773Z,101133.31
2024-05-09T04:24:14.909Z,101145.47
2024-05-09T04:26:48.797Z,101143.66
2024-05-09T04:29:17.062Z,101144.38
2024-05-09T04:31:48.190Z,101145.31
2024-05-09T04:34:16.587Z,101145.81
2024-05-09T04:36:47.722Z,101139.47
2024-05-09T04:39:16.020Z,101129.72
2024-05-09T04:41:49.762Z,101134.53
2024-05-09T04:44:18.154Z,101139.22
2024-05-09T04:46:50.280Z,101133.56
2024-05-09T04:49:18.103Z,101139.59
2024-05-09T04:51:48.386Z,101141.28
2024-05-09T04:54:26.370Z,101148.00
2024-05-09T04:57:07.857Z,101150.41
2024-05-09T04:59:36.922Z,101146.69
2024-05-09T05:02:08.423Z,101146.47
2024-05-09T05:04:36.626Z,101142.63
2024-05-09T05:07:07.132Z,101145.50
2024-05-09T05:09:44.544Z,101145.03
2024-05-09T05:12:38.239Z,101143.72
2024-05-09T05:15:09.664Z,101140.09
2024-05-09T05:17:40.842Z,101130.38
2024-05-09T05:20:15.049Z,101136.03
2024-05-09T05:22:45.724Z,101132.41
2024-05-09T05:25:13.488Z,101130.00
2024-05-09T05:27:46.371Z,101126.91
2024-05-09T05:30:21.138Z,101127.63
2024-05-09T05:32:55.689Z,101126.72
2024-05-09T05:35:23.515Z,101117.47
2024-05-09T05:37:54.547Z,101127.56
2024-05-09T05:40:32.049Z,101124.53
2024-05-09T05:43:11.196Z,101132.69
2024-05-09T05:45:39.714Z,101120.53
2024-05-09T05:48:11.236Z,101129.19
2024-05-09T05:50:39.786Z,101119.16
2024-05-09T05:53:11.126Z,101119.78
2024-05-09T05:55:41.200Z,101118.53
2024-05-09T05:58:15.950Z,101130.31
2024-05-09T06:00:44.518Z,101138.00
2024-05-09T06:03:16.124Z,101136.91
2024-05-09T06:05:46.436Z,101132.22
2024-05-09T06:08:17.740Z,101143.50
2024-05-09T06:10:46.384Z,101142.03
2024-05-09T06:13:21.368Z,101139.59
2024-05-09T06:15:49.751Z,101143.56
2024-05-09T06:18:21.898Z,101147.75
2024-05-09T06:20:49.610Z,101150.59
2024-05-09T06:23:19.876Z,101151.19
2024-05-09T06:25:47.667Z,101161.13
2024-05-09T06:28:20.582Z,101153.38
2024-05-09T06:30:48.091Z,101151.91
2024-05-09T06:33:18.579Z,101158.81
2024-05-09T06:35:47.259Z,101151.75
2024-05-09T06:38:18.373Z,101147.09
2024-05-09T06:40:46.818Z,101151.63
2024-05-09T06:43:20.291Z,101147.19
2024-05-09T06:45:48.702Z,101142.44
2024-05-09T06:48:22.131Z,101141.06
2024-05-09T06:50:51.106Z,101138.69
2024-05-09T06:53:25.505Z,101139.72
2024-05-09T06:55:53.701Z,101136.25
2024-05-09T06:58:27.382Z,101139.50
2024-05-09T07:00:55.233Z,101138.94
2024-05-09T07:03:26.115Z,101128.91
2024-05-09T07:05:54.158Z,101143.44
2024-05-09T07:08:24.441Z,101143.22
2024-05-09T07:10:52.110Z,101138.19
2024-05-09T07:13:22.329Z,101136.75
2024-05-09T07:15:52.627Z,101137.59
2024-05-09T07:18:23.488Z,101135.06
2024-05-09T07:20:51.270Z,101141.47
2024-05-09T07:23:21.789Z,101136.31
2024-05-09T07:25:49.539Z,101132.84
2024-05-09T07:28:20.952Z,101133.44
2024-05-09T07:30:56.445Z,101136.03
2024-05-09T07:33:27.001Z,101128.38
2024-05-09T07:35:54.715Z,101133.88
2024-05-09T07:38:24.982Z,101141.19
2024-05-09T07:40:52.663Z,101127.34
2024-05-09T07:43:22.826Z,101135.75
2024-05-09T07:45:55.206Z,101132.19
2024-05-09T07:50:00.331Z,101128.69
2024-05-09T07:53:52.144Z,101120.75
2024-05-09T07:56:23.851Z,101124.69
2024-05-09T07:58:55.897Z,101116.16
2024-05-09T08:01:27.305Z,101115.72
2024-05-09T08:03:57.876Z,101116.72
2024-05-09T08:06:26.539Z,101111.56
2024-05-09T08:08:59.122Z,101115.25
2024-05-09T08:11:28.523Z,101109.22
2024-05-09T08:13:58.731Z,101117.72
2024-05-09T08:16:29.026Z,101116.53
2024-05-09T08:18:59.262Z,101115.66
2024-05-09T08:21:27.261Z,101122.03
2024-05-09T08:23:57.436Z,101125.38
2024-05-09T08:26:24.957Z,101109.28
2024-05-09T08:28:55.081Z,101123.47
2024-05-09T08:31:22.841Z,101119.09
2024-05-09T08:33:56.814Z,101115.41
2024-05-09T08:36:24.309Z,101124.88
2024-05-09T08:38:54.485Z,101110.78
2024-05-09T08:41:22.222Z,101103.25
2024-05-09T08:43:52.616Z,101119.63
2024-05-09T08:46:20.371Z,101121.94
2024-05-09T08:48:52.818Z,101121.19
2024-05-09T08:51:23.230Z,101121.97
2024-05-09T08:53:53.442Z,101117.72
2024-05-09T08:56:32.233Z,101123.91
2024-05-09T08:59:15.939Z,101107.91
2024-05-09T09:01:54.569Z,101113.22
2024-05-09T09:04:32.514Z,101116.34
2024-05-09T09:07:11.363Z,101111.84
2024-05-09T09:09:54.921Z,101119.19
2024-05-09T09:12:28.143Z,101109.47
2024-05-09T09:15:04.040Z,101116.31
2024-05-09T09:17:32.221Z,101120.13
2024-05-09T09:20:03.043Z,101129.06
2024-05-09T09:22:33.835Z,101112.97
2024-05-09T09:25:04.538Z,101115.72
2024-05-09T09:27:34.354Z,101118.34
2024-05-09T09:30:06.827Z,101127.91
2024-05-09T09:32:36.426Z,101132.66
2024-05-09T09:35:06.781Z,101123.44
2024-05-09T09:37:38.401Z,101121.41
2024-05-09T09:40:13.344Z,101130.31
2024-05-09T09:42:43.496Z,101119.69
2024-05-09T09:45:14.288Z,101112.13
2024-05-09T09:47:43.428Z,101120.00
2024-05-09T09:50:20.471Z,101118.13
2024-05-09T09:52:55.427Z,101117.72
2024-05-09T09:55:26.594Z,101114.94
2024-05-09T09:57:56.520Z,101118.78
2024-05-09T10:00:33.122Z,101121.06
2024-05-09T10:03:01.981Z,101112.41
2024-05-09T10:05:33.253Z,101112.75
2024-05-09T10:08:05.595Z,101116.75
2024-05-09T10:10:37.456Z,101107.59
2024-05-09T10:13:05.730Z,101109.38
2024-05-09T10:15:48.375Z,101105.09
2024-05-09T10:18:16.506Z,101102.44
2024-05-09T10:20:47.308Z,101093.75
2024-05-09T10:23:36.493Z,101098.09
2024-05-09T10:26:07.866Z,101102.47
2024-05-09T10:28:37.188Z,101104.78
2024-05-09T10:31:11.741Z,101088.75
2024-05-09T10:33:40.206Z,101099.38
2024-05-09T10:36:17.561Z,101096.88
2024-05-09T10:38:49.313Z,101095.06
2024-05-09T10:41:20.460Z,101075.34
2024-05-09T10:43:48.759Z,101082.78
2024-05-09T10:46:19.955Z,101086.56
2024-05-09T10:48:48.780Z,101089.84
2024-05-09T10:51:21.742Z,101069.13
2024-05-09T10:53:52.774Z,101074.50
2024-05-09T10:56:22.943Z,101071.94
2024-05-09T10:58:52.335Z,101078.09
2024-05-09T11:01:22.633Z,101077.50
2024-05-09T11:03:51.101Z,101074.88
2024-05-09T11:06:21.693Z,101071.09
2024-05-09T11:08:52.432Z,101071.94
2024-05-09T11:11:23.012Z,101080.50
2024-05-09T11:13:50.607Z,101075.25
2024-05-09T11:16:22.607Z,101067.88
2024-05-09T11:18:55.113Z,101080.84
2024-05-09T11:21:25.993Z,101074.13
2024-05-09T11:23:57.266Z,101071.09
2024-05-09T11:26:29.728Z,101064.66
2024-05-09T11:28:57.241Z,101063.38
2024-05-09T11:31:27.908Z,101063.50
2024-05-09T11:33:55.590Z,101057.03
2024-05-09T11:36:25.856Z,101062.94
2024-05-09T11:38:56.040Z,101048.59
2024-05-09T11:41:27.445Z,101047.66
2024-05-09T11:43:54.890Z,101047.50
2024-05-09T11:46:25.351Z,101053.63
2024-05-09T11:48:53.065Z,101049.72
2024-05-09T11:51:23.502Z,101042.56
2024-05-09T11:53:50.997Z,101044.72
2024-05-09T11:56:23.901Z,101037.44
2024-05-09T11:58:51.400Z,101049.56
2024-05-09T12:01:23.073Z,101044.13
2024-05-09T12:03:51.934Z,101045.34
2024-05-09T12:06:22.800Z,101042.69
2024-05-09T12:08:50.386Z,101046.47
2024-05-09T12:11:20.632Z,101043.75
2024-05-09T12:13:50.866Z,101044.41
2024-05-09T12:16:21.116Z,101039.16
2024-05-09T12:18:48.806Z,101042.53
2024-05-09T12:21:19.101Z,101029.59
2024-05-09T12:23:46.564Z,101031.66
2024-05-09T12:26:16.811Z,101023.34
2024-05-09T12:28:44.432Z,101023.97
2024-05-09T12:31:17.344Z,101012.84
2024-05-09T12:33:46.330Z,101028.53
2024-05-09T12:36:16.709Z,101012.84
2024-05-09T12:38:44.302Z,101020.34
2024-05-09T12:41:14.628Z,101016.28
2024-05-09T12:43:42.100Z,101019.00
2024-05-09T12:46:12.382Z,101018.97
2024-05-09T12:48:42.763Z,101019.19
2024-05-09T12:51:13.025Z,101016.69
2024-05-09T12:53:40.539Z,101009.22
2024-05-09T12:56:11.187Z,101010.66
2024-05-09T12:58:38.768Z,101011.06
2024-05-09T13:01:08.988Z,100997.94
2024-05-09T13:03:37.014Z,101000.09
2024-05-09T13:06:10.164Z,101004.03
2024-05-09T13:08:37.881Z,100984.09
2024-05-09T13:11:08.561Z,100987.22
2024-05-09T13:13:36.128Z,100987.44
2024-05-09T13:16:06.424Z,100976.00
2024-05-09T13:18:36.033Z,100980.03
2024-05-09T13:21:06.264Z,100969.66
2024-05-09T13:23:39.875Z,100974.97
2024-05-09T13:26:07.445Z,100970.34
2024-05-09T13:28:37.657Z,100968.66
2024-05-09T13:31:05.419Z,100961.72
2024-05-09T13:33:36.498Z,100967.25
2024-05-09T13:36:04.471Z,100971.03
2024-05-09T13:38:34.691Z,100976.44
2024-05-09T13:41:05.195Z,100968.09
2024-05-09T13:43:35.390Z,100958.69
2024-05-09T13:46:03.332Z,100954.28
2024-05-09T13:48:34.063Z,100945.97
2024-05-09T13:51:01.629Z,100951.00
2024-05-09T13:53:31.940Z,100948.66
2024-05-09T13:55:59.505Z,100943.28
2024-05-09T13:58:32.452Z,100941.59
2024-05-09T14:01:00.101Z,100937.53
2024-05-09T14:03:30.664Z,100940.84
2024-05-09T14:05:58.446Z,100943.06
2024-05-09T14:08:28.805Z,100929.22
2024-05-09T14:10:56.561Z,100929.88
2024-05-09T14:13:26.946Z,100931.09
2024-05-09T14:15:57.492Z,100931.41
2024-05-09T14:18:28.189Z,100908.91
2024-05-09T14:20:55.739Z,100913.19
2024-05-09T14:23:25.883Z,100917.31
2024-05-09T14:25:53.763Z,100912.69
2024-05-09T14:28:26.481Z,100907.06
2024-05-09T14:30:57.003Z,100915.03
2024-05-09T14:33:28.153Z,100914.28
2024-05-09T14:35:56.058Z,100903.28
2024-05-09T14:38:26.731Z,100904.72
2024-05-09T14:40:54.485Z,100891.66
2024-05-09T14:43:24.917Z,100893.94
2024-05-09T14:45:53.784Z,100894.28
2024-05-09T14:48:27.204Z,100899.88
2024-05-09T14:50:54.994Z,100897.44
2024-05-09T14:53:26.756Z,100888.34
2024-05-09T14:55:54.590Z,100889.25
2024-05-09T14:58:24.890Z,100881.78
2024-05-09T15:00:52.894Z,100879.00
2024-05-09T15:03:23.479Z,100876.84
2024-05-09T15:05:56.734Z,100873.72
2024-05-09T15:08:24.630Z,100877.47
2024-05-09T15:10:54.895Z,100876.47
2024-05-09T15:13:22.642Z,100876.22
2024-05-09T15:15:53.024Z,100881.72
2024-05-09T15:18:20.890Z,100877.59
2024-05-09T15:20:51.354Z,100874.13
2024-05-09T15:23:21.626Z,100865.81
2024-05-09T15:25:52.144Z,100865.81
2024-05-09T15:28:19.874Z,100866.56
2024-05-09T15:30:50.589Z,100864.78
2024-05-09T15:33:18.394Z,100859.63
2024-05-09T15:35:48.612Z,100860.25
2024-05-09T15:38:16.674Z,100857.41
2024-05-09T15:40:49.813Z,100842.72
2024-05-09T15:43:17.615Z,100849.31
2024-05-09T15:45:48.110Z,100847.66
2024-05-09T15:48:15.909Z,100841.91
2024-05-09T15:50:46.316Z,100835.47
2024-05-09T15:53:16.708Z,100838.66
2024-05-09T15:55:46.933Z,100845.75
2024-05-09T15:58:17.716Z,100831.72
2024-05-09T16:00:47.150Z,100840.50
2024-05-09T16:03:21.451Z,100829.94
2024-05-09T16:05:49.184Z,100844.00
2024-05-09T16:08:19.688Z,100829.88
2024-05-09T16:10:50.164Z,100831.34
2024-05-09T16:13:20.733Z,100833.38
2024-05-09T16:15:48.622Z,100824.72
2024-05-09T16:18:19.854Z,100827.28
2024-05-09T16:20:49.953Z,100824.72
2024-05-09T16:23:20.746Z,100823.09
2024-05-09T16:25:51.719Z,100825.63
2024-05-09T16:28:24.518Z,100822.25
2024-05-09T16:30:52.679Z,100816.78
2024-05-09T16:33:24.034Z,100816.56
2024-05-09T16:35:52.232Z,100818.31
2024-05-09T16:38:22.796Z,100823.38
2024-05-09T16:40:53.162Z,100823.78
2024-05-09T16:43:23.576Z,100812.91
2024-05-09T16:45:51.391Z,100813.72
2024-05-09T16:48:22.247Z,100816.44
2024-05-09T16:50:49.860Z,100813.50
2024-05-09T16:53:20.026Z,100815.75
2024-05-09T16:55:47.541Z,100820.91
2024-05-09T16:58:20.934Z,100815.88
2024-05-09T17:00:48.600Z,100821.16
2024-05-09T17:03:19.203Z,100824.84
2024-05-09T17:05:47.743Z,100816.69
2024-05-09T17:08:20.167Z,100809.19
2024-05-09T17:10:50.044Z,100815.38
2024-05-09T17:13:23.374Z,100814.56
2024-05-09T17:15:53.970Z,100815.38
2024-05-09T17:18:24.350Z,100816.06
2024-05-09T17:20:52.666Z,100814.03
2024-05-09T17:23:22.931Z,100818.16
2024-05-09T17:25:50.497Z,100805.31
2024-05-09T17:28:23.567Z,100811.59
2024-05-09T17:30:51.262Z,100811.63
2024-05-09T17:33:21.688Z,100812.47
2024-05-09T17:35:51.601Z,100812.88
2024-05-09T17:38:23.124Z,100815.19
2024-05-09T17:40:51.120Z,100810.22
2024-05-09T17:43:24.465Z,100809.59
2024-05-09T17:45:55.050Z,100798.38
2024-05-09T17:48:22.788Z,100812.06
2024-05-09T17:50:53.654Z,100808.56
2024-05-09T17:53:21.718Z,100804.81
2024-05-09T17:55:54.092Z,100803.63
2024-05-09T17:58:24.511Z,100809.00
2024-05-09T18:00:55.018Z,100809.03
2024-05-09T18:03:23.725Z,100816.94
2024-05-09T18:05:54.912Z,100810.72
2024-05-09T18:08:22.501Z,100805.94
2024-05-09T18:10:55.216Z,100811.31
2024-05-09T18:13:27.179Z,100802.78
2024-05-09T18:15:57.876Z,100811.53
2024-05-09T18:18:25.657Z,100808.19
2024-05-09T18:20:55.936Z,100803.59
2024-05-09T18:23:23.626Z,100806.94
2024-05-09T18:25:54.935Z,100812.28
2024-05-09T18:28:25.735Z,100812.91
2024-05-09T18:30:56.015Z,100809.97
2024-05-09T18:33:24.948Z,100814.47
2024-05-09T18:35:55.254Z,100817.34
2024-05-09T18:38:27.230Z,100815.84
2024-05-09T18:40:54.900Z,100825.72
2024-05-09T18:43:34.825Z,100820.44
2024-05-09T18:46:06.127Z,100829.94
2024-05-09T18:48:36.921Z,100822.38
2024-05-09T18:51:05.843Z,100822.06
2024-05-09T18:53:36.367Z,100831.94
2024-05-09T18:56:03.994Z,100830.16
2024-05-09T18:58:37.048Z,100830.88
2024-05-09T19:01:05.002Z,100839.38
2024-05-09T19:03:35.594Z,100838.16
2024-05-09T19:06:03.519Z,100837.56
2024-05-09T19:08:33.858Z,100840.09
2024-05-09T19:11:02.244Z,100845.75
2024-05-09T19:13:32.660Z,100846.44
2024-05-09T19:16:03.559Z,100850.00
2024-05-09T19:18:33.945Z,100839.34
2024-05-09T19:21:01.499Z,100853.16
2024-05-09T19:23:35.312Z,100841.09
2024-05-09T19:26:05.716Z,100836.56
2024-05-09T19:28:35.877Z,100848.31
2024-05-09T19:31:06.051Z,100837.03
2024-05-09T19:33:37.096Z,100849.31
2024-05-09T19:36:05.568Z,100848.28
2024-05-09T19:38:36.101Z,100848.88
2024-05-09T19:41:03.681Z,100845.31
2024-05-09T19:43:36.122Z,100854.81
2024-05-09T19:46:06.652Z,100851.91
2024-05-09T19:48:37.504Z,100858.03
2024-05-09T19:51:05.602Z,100849.78
2024-05-09T19:53:35.793Z,100860.75
2024-05-09T19:56:03.335Z,100851.91
2024-05-09T19:58:33.648Z,100854.66
2024-05-09T20:01:01.438Z,100850.34
2024-05-09T20:03:37.230Z,100855.94
2024-05-09T20:06:05.286Z,100866.03
2024-05-09T20:08:36.005Z,100863.91
2024-05-09T20:11:03.552Z,100862.06
2024-05-09T20:13:33.837Z,100857.31
2024-05-09T20:16:01.673Z,100864.69
2024-05-09T20:18:34.801Z,100850.66
2024-05-09T20:21:02.595Z,100851.19
2024-05-09T20:23:32.840Z,100855.25
2024-05-09T20:26:00.447Z,100850.41
2024-05-09T20:28:30.665Z,100846.78
2024-05-09T20:30:58.311Z,100850.13
2024-05-09T20:33:28.459Z,100853.81
2024-05-09T20:36:01.483Z,100848.16
2024-05-09T20:38:32.259Z,100848.13
2024-05-09T20:40:59.770Z,100847.47
2024-05-09T20:43:30.359Z,100851.78
2024-05-09T20:45:58.258Z,100838.78
2024-05-09T20:48:28.559Z,100845.09
2024-05-09T20:50:58.825Z,100844.59
2024-05-09T20:53:28.982Z,100845.44
2024-05-09T20:55:56.809Z,100849.09
2024-05-09T20:58:27.233Z,100848.06
2024-05-09T21:00:54.839Z,100847.06
2024-05-09T21:03:25.292Z,100853.84
2024-05-09T21:05:52.946Z,100840.00
2024-05-09T21:08:27.038Z,100855.69
2024-05-09T21:10:54.645Z,100848.78
2024-05-09T21:13:24.910Z,100850.91
2024-05-09T21:15:52.520Z,100854.53
2024-05-09T21:18:24.363Z,100854.19
2024-05-09T21:20:51.940Z,100855.13
2024-05-09T21:23:22.077Z,100851.13
2024-05-09T21:25:52.249Z,100846.44
2024-05-09T21:28:22.426Z,100851.91
2024-05-09T21:30:49.987Z,100841.66
2024-05-09T21:33:20.344Z,100832.56
2024-05-09T21:35:48.255Z,100856.84
2024-05-09T21:38:18.454Z,100846.44
2024-05-09T21:40:46.721Z,100849.06
2024-05-09T21:43:19.795Z,100844.66
2024-05-09T21:45:47.723Z,100844.44
2024-05-09T21:48:17.947Z,100851.91
2024-05-09T21:50:45.480Z,100846.19
2024-05-09T21:53:15.942Z,100841.59
2024-05-09T21:55:43.499Z,100853.03
2024-05-09T21:58:14.488Z,100848.31
2024-05-09T22:00:46.867Z,100847.25
2024-05-09T22:03:18.168Z,100845.88
2024-05-09T22:05:46.707Z,100851.13
2024-05-09T22:08:17.789Z,100846.41
2024-05-09T22:10:46.423Z,100840.41
2024-05-09T22:13:19.480Z,100843.63
2024-05-09T22:15:50.641Z,100847.75
2024-05-09T22:18:21.796Z,100844.31
2024-05-09T22:20:49.324Z,100849.38
2024-05-09T22:23:19.507Z,100852.63
2024-05-09T22:25:47.121Z,100850.44
2024-05-09T22:28:18.594Z,100848.38
2024-05-09T22:30:50.799Z,100840.13
2024-05-09T22:33:21.137Z,100846.75
2024-05-09T22:35:48.717Z,100845.81
2024-05-09T22:38:18.902Z,100850.56
2024-05-09T22:40:49.243Z,100851.13
2024-05-09T22:43:25.173Z,100848.22
2024-05-09T22:45:56.112Z,100845.31
2024-05-09T22:48:26.717Z,100842.25
2024-05-09T22:50:55.145Z,100851.78
2024-05-09T22:53:26.677Z,100848.56
2024-05-09T22:55:54.533Z,100847.16
2024-05-09T22:58:25.936Z,100847.91
2024-05-09T23:00:56.324Z,100849.16
2024-05-09T23:03:26.862Z,100840.09
2024-05-09T23:05:54.523Z,100845.41
2024-05-09T23:08:24.663Z,100838.72
2024-05-09T23:10:52.343Z,100844.31
2024-05-09T23:13:22.900Z,100839.56
2024-05-09T23:15:50.496Z,100834.84
2024-05-09T23:18:23.490Z,100825.75
2024-05-09T23:20:52.077Z,100825.06
2024-05-09T23:23:22.815Z,100810.56
2024-05-09T23:25:50.294Z,100824.25
2024-05-09T23:28:20.537Z,100819.78
2024-05-09T23:30:48.146Z,100821.28
2024-05-09T23:33:18.608Z,100827.56
2024-05-09T23:35:48.925Z,100820.31
2024-05-09T23:38:22.478Z,100831.22
2024-05-09T23:40:51.458Z,100819.50
2024-05-09T23:43:22.400Z,100826.75
2024-05-09T23:45:49.929Z,100826.16
2024-05-09T23:48:20.247Z,100824.94
2024-05-09T23:50:50.559Z,100819.28
2024-05-09T23:53:20.769Z,100819.72
2024-05-09T23:55:48.276Z,100813.00
2024-05-09T23:58:18.431Z,100810.63
